Pride — ZDFD7 — position and weather

sailwx.info

Track history (hours):
 
Tides and Currents Weather Stations Pressure Air Temp Water Temp Dewpoint Dewpoint Depression Visibility Wind Speed Wind Dir Waves Ship Positions

Pride

Last reported at 2017-May-22 11:29 UTC. Time now 2017-May-23 17:06 UTC.
Position N 48°60' W 005°34'.

Length 88 m; draft 4.9 m.

Type: Cargo ship. MMSI: 236166000.

Date/timePositionNaut miles runAvg speedWind from/ knotsBaromVisibWave heightAir tempDewpointWater temp
2017-May-22 11:29N 48°60' W 005°34'6510.0
2017-May-22 04:56N 49°33' W 004°08'7 9.5
2017-May-22 04:12N 49°37' W 003°59'2 9.2
2017-May-22 03:58N 49°38' W 003°56'4 9.0
2017-May-22 03:29N 49°40' W 003°50'4 8.9
2017-May-22 03:00N 49°42' W 003°44'5 8.8
2017-May-22 02:29N 49°44' W 003°38'4 8.9
2017-May-22 02:00N 49°46' W 003°33'5 9.0
2017-May-22 01:30N 49°49' W 003°27'5 9.3
2017-May-22 01:00N 49°51' W 003°21'5 9.8
2017-May-22 00:30N 49°54' W 003°14'510.3
2017-May-22 00:00N 49°57' W 003°07'510.7
2017-May-21 23:30N 49°59' W 003°00'611.1
2017-May-21 23:00N 50°01' W 002°52'611.7
2017-May-21 22:29N 50°03' W 002°43'1712.0
2017-May-21 21:05N 50°08' W 002°18'111.9
2017-May-21 21:00N 50°08' W 002°16'611.6
2017-May-21 20:26N 50°10' W 002°07'511.1
2017-May-21 20:00N 50°11' W 001°59'48 8.7
2017-May-21 14:31N 50°24' W 000°48'1 9.2
2017-May-21 14:24N 50°24' W 000°46'9 9.7
2017-May-21 13:30N 50°27' W 000°33'510.3
2017-May-21 13:00N 50°28' W 000°25'510.8
2017-May-21 12:30N 50°30' W 000°17'511.0
2017-May-21 12:00N 50°31' W 000°09'611.0
2017-May-21 11:30N 50°33' W 000°01'611.0
2017-May-21 11:00N 50°34' E 000°08'511.0
2017-May-21 10:30N 50°36' E 000°16'510.8
2017-May-21 10:00N 50°37' E 000°24'510.5
2017-May-21 09:30N 50°39' E 000°32'510.0
2017-May-21 09:00N 50°41' E 000°39'5 9.5
2017-May-21 08:30N 50°44' E 000°45'5 9.0
2017-May-21 08:00N 50°46' E 000°51'16 8.5
2017-May-21 06:11N 50°56' E 001°11'2 8.7
2017-May-21 05:56N 50°57' E 001°13'4 8.7
2017-May-21 05:27N 50°60' E 001°18'4 9.0
2017-May-21 05:00N 51°03' E 001°23'5 9.6
2017-May-21 04:30N 51°06' E 001°29'510.2
2017-May-21 04:00N 51°09' E 001°35'510.6
2017-May-21 03:30N 51°12' E 001°42'510.7
2017-May-21 03:00N 51°16' E 001°47'510.6
2017-May-21 02:30N 51°21' E 001°52'510.2
2017-May-21 02:00N 51°25' E 001°56'5 9.9
2017-May-21 01:30N 51°29' E 002°01'5 9.7
2017-May-21 01:00N 51°33' E 002°06'5 9.3
2017-May-21 00:29N 51°36' E 002°11'5 9.1
2017-May-20 23:58N 51°40' E 002°16'7 8.8
2017-May-20 23:12N 51°46' E 002°22'85 9.2
2017-May-20 13:56N 52°52' E 003°49'46 8.4
2017-May-20 08:29N 53°27' E 004°37'5 9.5
2017-May-20 07:59N 53°29' E 004°45'510.0
2017-May-20 07:29N 53°31' E 004°52'116 9.2
2017-May-19 18:48N 53°50' E 008°06'411.8
2017-May-19 18:26N 53°46' E 008°10'1010.6
2017-May-19 17:31N 53°40' E 008°23'2 9.1
2017-May-19 17:18N 53°39' E 008°25'3 9.1
2017-May-19 17:00N 53°37' E 008°29'4 8.5
2017-May-19 16:29N 53°33' E 008°33'3 6.1
2017-May-19 15:59N 53°31' E 008°31'4 7.9
2017-May-19 15:27N 53°27' E 008°29'4 8.0
2017-May-19 15:00N 53°23' E 008°30'3 2.7
2017-May-19 14:00N 53°20' E 008°30'0 0.0
2017-May-19 13:29N 53°20' E 008°30'0 0.0
2017-May-19 12:58N 53°20' E 008°30'0 0.0
2017-May-19 12:29N 53°20' E 008°30'0 0.0
2017-May-19 12:00N 53°20' E 008°30'0 0.0
2017-May-19 11:28N 53°20' E 008°30'0 0.0
2017-May-19 10:58N 53°20' E 008°30'0 0.0
2017-May-19 10:29N 53°20' E 008°30'0 0.0
2017-May-19 09:54N 53°20' E 008°30'0 0.0
2017-May-19 09:30N 53°20' E 008°30'0 0.0
2017-May-19 08:59N 53°20' E 008°30'0 0.0
2017-May-19 08:25N 53°20' E 008°30'0 0.0
2017-May-19 07:58N 53°20' E 008°30'0 0.0
2017-May-19 07:30N 53°20' E 008°30'0 0.0
2017-May-19 07:00N 53°20' E 008°30'0 0.0
2017-May-19 06:30N 53°20' E 008°30'0 0.0
2017-May-19 05:59N 53°20' E 008°30'0 0.0
2017-May-19 05:29N 53°20' E 008°30'0 0.0
2017-May-19 04:59N 53°20' E 008°30'0 0.0
2017-May-19 04:28N 53°20' E 008°30'0 0.0
2017-May-19 03:58N 53°20' E 008°30'0 0.0
2017-May-19 03:29N 53°20' E 008°30'0 0.0
2017-May-19 02:56N 53°20' E 008°30'0 0.0
2017-May-19 02:02N 53°20' E 008°30'0 0.0
2017-May-19 01:59N 53°20' E 008°30'0 0.0
2017-May-19 01:29N 53°20' E 008°30'0 0.0
2017-May-19 00:59N 53°20' E 008°30'0 0.0
2017-May-19 00:13N 53°20' E 008°30'0 0.0
2017-May-18 23:58N 53°20' E 008°30'0 0.0
2017-May-18 23:29N 53°20' E 008°30'0 0.0
2017-May-18 22:58N 53°20' E 008°30'0 0.0
2017-May-18 22:28N 53°20' E 008°30'0 0.0
2017-May-18 21:58N 53°20' E 008°30'0 0.0
2017-May-18 21:29N 53°20' E 008°30'0 0.0
2017-May-18 20:59N 53°20' E 008°30'0 0.0
2017-May-18 20:28N 53°20' E 008°30'0 0.0
2017-May-18 20:00N 53°20' E 008°30'0 0.0
2017-May-18 16:14N 53°20' E 008°30'0 0.0
2017-May-18 14:58N 53°20' E 008°30'0 0.0
2017-May-18 14:01N 53°20' E 008°30'2 4.7
2017-May-18 13:30N 53°23' E 008°30'712.4
2017-May-18 12:58N 53°29' E 008°30'6 9.2
2017-May-18 12:18N 53°36' E 008°31'510.9
2017-May-18 11:48N 53°39' E 008°24'310.7
2017-May-18 11:28N 53°42' E 008°20'1011.2
2017-May-18 10:35N 53°48' E 008°08'  
Track history (hours):
 
Tides and Currents Weather Stations Pressure Air Temp Water Temp Dewpoint Dewpoint Depression Visibility Wind Speed Wind Dir Waves Ship Positions

Pride

Last reported at 2017-May-22 11:29 UTC. Time now 2017-May-23 17:06 UTC.
Position N 48°60' W 005°34'.

Length 88 m; draft 4.9 m.

Type: Cargo ship. MMSI: 236166000.

Date/timePositionNaut miles runAvg speedWind from/ knotsBaromVisibWave heightAir tempDewpointWater temp
2017-May-22 11:29N 48°60' W 005°34'6510.0
2017-May-22 04:56N 49°33' W 004°08'7 9.5
2017-May-22 04:12N 49°37' W 003°59'2 9.2
2017-May-22 03:58N 49°38' W 003°56'4 9.0
2017-May-22 03:29N 49°40' W 003°50'4 8.9
2017-May-22 03:00N 49°42' W 003°44'5 8.8
2017-May-22 02:29N 49°44' W 003°38'4 8.9
2017-May-22 02:00N 49°46' W 003°33'5 9.0
2017-May-22 01:30N 49°49' W 003°27'5 9.3
2017-May-22 01:00N 49°51' W 003°21'5 9.8
2017-May-22 00:30N 49°54' W 003°14'510.3
2017-May-22 00:00N 49°57' W 003°07'510.7
2017-May-21 23:30N 49°59' W 003°00'611.1
2017-May-21 23:00N 50°01' W 002°52'611.7
2017-May-21 22:29N 50°03' W 002°43'1712.0
2017-May-21 21:05N 50°08' W 002°18'111.9
2017-May-21 21:00N 50°08' W 002°16'611.6
2017-May-21 20:26N 50°10' W 002°07'511.1
2017-May-21 20:00N 50°11' W 001°59'48 8.7
2017-May-21 14:31N 50°24' W 000°48'1 9.2
2017-May-21 14:24N 50°24' W 000°46'9 9.7
2017-May-21 13:30N 50°27' W 000°33'510.3
2017-May-21 13:00N 50°28' W 000°25'510.8
2017-May-21 12:30N 50°30' W 000°17'511.0
2017-May-21 12:00N 50°31' W 000°09'611.0
2017-May-21 11:30N 50°33' W 000°01'611.0
2017-May-21 11:00N 50°34' E 000°08'511.0
2017-May-21 10:30N 50°36' E 000°16'510.8
2017-May-21 10:00N 50°37' E 000°24'510.5
2017-May-21 09:30N 50°39' E 000°32'510.0
2017-May-21 09:00N 50°41' E 000°39'5 9.5
2017-May-21 08:30N 50°44' E 000°45'5 9.0
2017-May-21 08:00N 50°46' E 000°51'16 8.5
2017-May-21 06:11N 50°56' E 001°11'2 8.7
2017-May-21 05:56N 50°57' E 001°13'4 8.7
2017-May-21 05:27N 50°60' E 001°18'4 9.0
2017-May-21 05:00N 51°03' E 001°23'5 9.6
2017-May-21 04:30N 51°06' E 001°29'510.2
2017-May-21 04:00N 51°09' E 001°35'510.6
2017-May-21 03:30N 51°12' E 001°42'510.7
2017-May-21 03:00N 51°16' E 001°47'510.6
2017-May-21 02:30N 51°21' E 001°52'510.2
2017-May-21 02:00N 51°25' E 001°56'5 9.9
2017-May-21 01:30N 51°29' E 002°01'5 9.7
2017-May-21 01:00N 51°33' E 002°06'5 9.3
2017-May-21 00:29N 51°36' E 002°11'5 9.1
2017-May-20 23:58N 51°40' E 002°16'7 8.8
2017-May-20 23:12N 51°46' E 002°22'85 9.2
2017-May-20 13:56N 52°52' E 003°49'46 8.4
2017-May-20 08:29N 53°27' E 004°37'5 9.5
2017-May-20 07:59N 53°29' E 004°45'510.0
2017-May-20 07:29N 53°31' E 004°52'116 9.2
2017-May-19 18:48N 53°50' E 008°06'411.8
2017-May-19 18:26N 53°46' E 008°10'1010.6
2017-May-19 17:31N 53°40' E 008°23'2 9.1
2017-May-19 17:18N 53°39' E 008°25'3 9.1
2017-May-19 17:00N 53°37' E 008°29'4 8.5
2017-May-19 16:29N 53°33' E 008°33'3 6.1
2017-May-19 15:59N 53°31' E 008°31'4 7.9
2017-May-19 15:27N 53°27' E 008°29'4 8.0
2017-May-19 15:00N 53°23' E 008°30'3 2.7
2017-May-19 14:00N 53°20' E 008°30'0 0.0
2017-May-19 13:29N 53°20' E 008°30'0 0.0
2017-May-19 12:58N 53°20' E 008°30'0 0.0
2017-May-19 12:29N 53°20' E 008°30'0 0.0
2017-May-19 12:00N 53°20' E 008°30'0 0.0
2017-May-19 11:28N 53°20' E 008°30'0 0.0
2017-May-19 10:58N 53°20' E 008°30'0 0.0
2017-May-19 10:29N 53°20' E 008°30'0 0.0
2017-May-19 09:54N 53°20' E 008°30'0 0.0
2017-May-19 09:30N 53°20' E 008°30'0 0.0
2017-May-19 08:59N 53°20' E 008°30'0 0.0
2017-May-19 08:25N 53°20' E 008°30'0 0.0
2017-May-19 07:58N 53°20' E 008°30'0 0.0
2017-May-19 07:30N 53°20' E 008°30'0 0.0
2017-May-19 07:00N 53°20' E 008°30'0 0.0
2017-May-19 06:30N 53°20' E 008°30'0 0.0
2017-May-19 05:59N 53°20' E 008°30'0 0.0
2017-May-19 05:29N 53°20' E 008°30'0 0.0
2017-May-19 04:59N 53°20' E 008°30'0 0.0
2017-May-19 04:28N 53°20' E 008°30'0 0.0
2017-May-19 03:58N 53°20' E 008°30'0 0.0
2017-May-19 03:29N 53°20' E 008°30'0 0.0
2017-May-19 02:56N 53°20' E 008°30'0 0.0
2017-May-19 02:02N 53°20' E 008°30'0 0.0
2017-May-19 01:59N 53°20' E 008°30'0 0.0
2017-May-19 01:29N 53°20' E 008°30'0 0.0
2017-May-19 00:59N 53°20' E 008°30'0 0.0
2017-May-19 00:13N 53°20' E 008°30'0 0.0
2017-May-18 23:58N 53°20' E 008°30'0 0.0
2017-May-18 23:29N 53°20' E 008°30'0 0.0
2017-May-18 22:58N 53°20' E 008°30'0 0.0
2017-May-18 22:28N 53°20' E 008°30'0 0.0
2017-May-18 21:58N 53°20' E 008°30'0 0.0
2017-May-18 21:29N 53°20' E 008°30'0 0.0
2017-May-18 20:59N 53°20' E 008°30'0 0.0
2017-May-18 20:28N 53°20' E 008°30'0 0.0
2017-May-18 20:00N 53°20' E 008°30'0 0.0
2017-May-18 16:14N 53°20' E 008°30'0 0.0
2017-May-18 14:58N 53°20' E 008°30'0 0.0
2017-May-18 14:01N 53°20' E 008°30'2 4.7
2017-May-18 13:30N 53°23' E 008°30'712.4
2017-May-18 12:58N 53°29' E 008°30'6 9.2
2017-May-18 12:18N 53°36' E 008°31'510.9
2017-May-18 11:48N 53°39' E 008°24'310.7
2017-May-18 11:28N 53°42' E 008°20'1011.2
2017-May-18 10:35N 53°48' E 008°08'  

Dump ship's entire track history